Auburn, CA

11:51 PM PST on December 09, 2019 (GMT -0800)
Auburn Municipal

Weather History for KAUN - August, 2019

Change the Weather History Date:

Monday, August 12, 2019

  Actual Average Record
Temperature  
Mean Temperature 76 °F -  
Max Temperature 89 °F 92 °F 102 °F (1970)
Min Temperature 64 °F 61 °F 50 °F (1949)
Cooling Degree Days 12    
Growing Degree Days 26 (Base 50)    
Moisture  
Dew Point 48 °F    
Average Humidity 40    
Maximum Humidity 59    
Minimum Humidity 21    
Precipitation  
Precipitation 0.00 in - - ()
Sea Level Pressure  
Sea Level Pressure 30.00 in    
Wind  
Wind Speed 2 mph ()    
Max Wind Speed 9 mph    
Max Gust Speed 15 mph    
Visibility 9.9 miles    
Events      
Averages and records for this station are not official NWS values.
T = Trace of Precipitation, MM = Missing Value Source: Averaged Metar Reports

Daily Weather History Graph

Daily Weather History Graph

Search for Another Location

Airport or City:

Astronomy

Aug. 12, 2019 Rise Set
Actual Time 6:14 AM PDT 8:03 PM PDT
Civil Twilight 5:46 AM PDT 8:31 PM PDT
Nautical Twilight 5:11 AM PDT 9:06 PM PDT
Astronomical Twilight 4:33 AM PDT 9:43 PM PDT
Moon 6:36 PM PDT (8/12) 3:29 AM PDT (8/12)
Length of Visible Light 14h 45m
Length of Day
13h 48m
Waxing Gibbous, 93% of the Moon is Illuminated
Aug 12
Waxing Gibbous
Aug 15
Full
Aug 23
Last Quarter
Aug 30
New
Sep 5
First Quarter

Hourly Weather History & Observations

Time (PDT) Temp. Dew Point Humidity Pressure Visibility Wind Dir Wind Speed Gust Speed Precip Events Conditions
12:15 AM 68.0 °F 48.2 °F 49% 30.01 in 10.0 mi Calm Calm - N/A   Clear
12:35 AM 66.2 °F 48.2 °F 52% 30.00 in 10.0 mi Calm Calm - N/A   Clear
12:55 AM 66.2 °F 48.2 °F 52% 30.00 in 10.0 mi Calm Calm - N/A   Clear
1:15 AM 66.2 °F 50.0 °F 56% 30.00 in 10.0 mi Calm Calm - N/A   Clear
1:35 AM 66.2 °F 50.0 °F 56% 30.00 in 10.0 mi East 8.1 mph - N/A   Clear
1:55 AM 66.2 °F 50.0 °F 56% 30.00 in 10.0 mi East 3.5 mph - N/A   Clear
2:15 AM 66.2 °F 50.0 °F 56% 30.00 in 10.0 mi East 6.9 mph - N/A   Clear
2:35 AM 66.2 °F 50.0 °F 56% 30.00 in 10.0 mi East 5.8 mph - N/A   Clear
2:55 AM 64.4 °F 50.0 °F 59% 30.00 in 10.0 mi Calm Calm - N/A   Clear
3:15 AM 64.4 °F 50.0 °F 59% 30.00 in 10.0 mi Calm Calm - N/A   Clear
3:35 AM 64.4 °F 50.0 °F 59% 30.00 in 10.0 mi Calm Calm - N/A   Clear
3:55 AM 64.4 °F 50.0 °F 59% 30.00 in 10.0 mi East 8.1 mph - N/A   Clear
4:15 AM 66.2 °F 50.0 °F 56% 30.00 in 10.0 mi East 6.9 mph - N/A   Clear
4:35 AM 64.4 °F 50.0 °F 59% 30.00 in 10.0 mi East 5.8 mph - N/A   Clear
4:55 AM 64.4 °F 50.0 °F 59% 30.01 in 10.0 mi East 5.8 mph - N/A   Clear
5:15 AM 64.4 °F 50.0 °F 59% 30.01 in 10.0 mi East 5.8 mph - N/A   Clear
5:35 AM 64.4 °F 50.0 °F 59% 30.01 in 10.0 mi East 5.8 mph - N/A   Clear
5:55 AM 64.4 °F 50.0 °F 59% 30.01 in 10.0 mi East 4.6 mph - N/A   Clear
6:15 AM 64.4 °F 50.0 °F 59% 30.02 in 10.0 mi Calm Calm - N/A   Clear
6:35 AM 64.4 °F 50.0 °F 59% 30.02 in 10.0 mi East 6.9 mph - N/A   Clear
6:55 AM 66.2 °F 50.0 °F 56% 30.02 in 10.0 mi East 4.6 mph - N/A   Clear
7:15 AM 66.2 °F 50.0 °F 56% 30.02 in 10.0 mi East 6.9 mph - N/A   Clear
7:35 AM 68.0 °F 50.0 °F 52% 30.03 in 10.0 mi Calm Calm - N/A   Clear
7:55 AM 69.8 °F 50.0 °F 49% 30.03 in 10.0 mi Calm Calm - N/A   Clear
8:15 AM 73.4 °F 50.0 °F 44% 30.04 in 10.0 mi East 6.9 mph - N/A   Clear
8:35 AM 73.4 °F 50.0 °F 44% 30.04 in 10.0 mi ESE 6.9 mph - N/A   Clear
8:55 AM 75.2 °F 50.0 °F 41% 30.04 in 10.0 mi Calm Calm - N/A   Clear
9:15 AM 77.0 °F 50.0 °F 39% 30.04 in 10.0 mi Calm Calm - N/A   Clear
9:35 AM 78.8 °F 50.0 °F 36% 30.04 in 10.0 mi Calm Calm - N/A   Clear
9:55 AM 78.8 °F 50.0 °F 36% 30.04 in 10.0 mi Calm Calm - N/A   Clear
10:15 AM 80.6 °F 50.0 °F 34% 30.04 in 10.0 mi Calm Calm - N/A   Clear
10:35 AM 80.6 °F 50.0 °F 34% 30.04 in 10.0 mi Calm Calm - N/A   Clear
10:55 AM 82.4 °F 50.0 °F 32% 30.04 in 10.0 mi SSW 5.8 mph - N/A   Clear
11:15 AM 82.4 °F 50.0 °F 32% 30.04 in 9.0 mi Calm Calm - N/A   Clear
11:35 AM 84.2 °F 50.0 °F 30% 30.04 in 9.0 mi Calm Calm - N/A   Clear
11:55 AM 84.2 °F 50.0 °F 30% 30.03 in 9.0 mi SSE 3.5 mph - N/A   Clear
12:15 PM 84.2 °F 50.0 °F 30% 30.03 in 10.0 mi Variable 3.5 mph - N/A   Clear
12:35 PM 86.0 °F 50.0 °F 29% 30.03 in 10.0 mi Variable 4.6 mph - N/A   Clear
12:55 PM 86.0 °F 50.0 °F 29% 30.02 in 10.0 mi Calm Calm - N/A   Clear
1:15 PM 87.8 °F 50.0 °F 27% 30.02 in 9.0 mi Calm Calm - N/A   Clear
1:35 PM 86.0 °F 50.0 °F 29% 30.02 in 10.0 mi Calm Calm 11.5 mph N/A   Clear
1:55 PM 87.8 °F 50.0 °F 27% 30.01 in 10.0 mi WSW 4.6 mph 13.8 mph N/A   Clear
2:15 PM 87.8 °F 50.0 °F 27% 30.01 in 9.0 mi Calm Calm - N/A   Clear
2:35 PM 87.8 °F 50.0 °F 27% 30.01 in 10.0 mi WSW 5.8 mph - N/A   Clear
2:55 PM 89.6 °F 50.0 °F 26% 30.00 in 10.0 mi Variable 4.6 mph 11.5 mph N/A   Clear
3:15 PM 89.6 °F 50.0 °F 26% 30.00 in 10.0 mi WSW 9.2 mph - N/A   Clear
3:35 PM 87.8 °F 50.0 °F 27% 29.99 in 10.0 mi Calm Calm 12.7 mph N/A   Clear
3:55 PM 89.6 °F 48.2 °F 24% 29.98 in 10.0 mi Calm Calm - N/A   Clear
4:15 PM 89.6 °F 48.2 °F 24% 29.98 in 10.0 mi SW 5.8 mph 15.0 mph N/A   Clear
4:35 PM 89.6 °F 48.2 °F 24% 29.98 in 10.0 mi WSW 5.8 mph 11.5 mph N/A   Clear
4:55 PM 89.6 °F 50.0 °F 26% 29.97 in 10.0 mi West 6.9 mph 13.8 mph N/A   Clear
5:15 PM 89.6 °F 48.2 °F 24% 29.97 in 10.0 mi WSW 8.1 mph - N/A   Clear
5:35 PM 87.8 °F 46.4 °F 24% 29.97 in 10.0 mi WSW 5.8 mph - N/A   Clear
5:55 PM 87.8 °F 46.4 °F 24% 29.96 in 10.0 mi Calm Calm - N/A   Clear
6:15 PM 87.8 °F 44.6 °F 22% 29.96 in 10.0 mi Calm Calm - N/A   Clear
6:35 PM 87.8 °F 44.6 °F 22% 29.95 in 10.0 mi Calm Calm - N/A   Clear
6:55 PM 87.8 °F 42.8 °F 21% 29.96 in 10.0 mi Calm Calm - N/A   Clear
7:15 PM 86.0 °F 42.8 °F 22% 29.96 in 10.0 mi Calm Calm - N/A   Clear
7:35 PM 84.2 °F 42.8 °F 23% 29.96 in 10.0 mi Calm Calm - N/A   Clear
7:55 PM 82.4 °F 42.8 °F 25% 29.96 in 10.0 mi Calm Calm - N/A   Clear
8:15 PM 77.0 °F 42.8 °F 29% 29.96 in 10.0 mi Calm Calm - N/A   Clear
8:35 PM 71.6 °F 42.8 °F 35% 29.96 in 10.0 mi Calm Calm - N/A   Clear
8:55 PM 68.0 °F 42.8 °F 40% 29.97 in 10.0 mi Calm Calm - N/A   Clear
9:15 PM 68.0 °F 42.8 °F 40% 29.98 in 10.0 mi Calm Calm - N/A   Clear
9:35 PM 68.0 °F 44.6 °F 43% 29.99 in 10.0 mi Calm Calm - N/A   Clear
9:55 PM 66.2 °F 44.6 °F 46% 29.99 in 10.0 mi Calm Calm - N/A   Clear
10:15 PM 69.8 °F 46.4 °F 43% 29.99 in 10.0 mi Calm Calm - N/A   Clear
10:35 PM 71.6 °F 46.4 °F 41% 30.00 in 10.0 mi Calm Calm - N/A   Clear
10:55 PM 71.6 °F 48.2 °F 43% 30.00 in 10.0 mi Calm Calm - N/A   Clear
11:15 PM 71.6 °F 50.0 °F 46% 30.00 in 10.0 mi East 6.9 mph - N/A   Clear
11:55 PM 73.4 °F 50.0 °F 44% 30.00 in 10.0 mi East 6.9 mph - N/A   Clear